createdAt,value
2017-10-20T07:18:29.034Z,46.58
2017-10-20T07:20:57.668Z,45.61
2017-10-20T07:23:27.053Z,45.86
2017-10-20T07:25:55.559Z,45.92
2017-10-20T07:28:25.345Z,45.36
2017-10-20T07:30:54.253Z,47.80
2017-10-20T07:38:23.778Z,47.35
2017-10-20T07:40:53.157Z,45.19
2017-10-20T07:43:21.627Z,44.93
2017-10-20T07:45:50.139Z,44.80
2017-10-20T07:48:19.972Z,46.25
2017-10-20T07:50:49.189Z,44.50
2017-10-20T07:53:17.829Z,47.21
2017-10-20T07:55:46.763Z,48.24
2017-10-20T07:58:15.834Z,45.79
2017-10-20T08:00:45.341Z,46.30
2017-10-20T08:03:15.550Z,45.99
2017-10-20T08:05:44.808Z,43.89
2017-10-20T08:10:44.342Z,44.34
2017-10-20T08:13:13.202Z,43.78
2017-10-20T08:15:44.339Z,45.08
2017-10-20T08:18:12.858Z,44.95
2017-10-20T08:20:41.429Z,47.80
2017-10-20T08:23:10.060Z,46.63
2017-10-20T08:25:40.242Z,46.67
2017-10-20T08:28:09.848Z,46.38
2017-10-20T08:30:42.484Z,45.61
2017-10-20T08:35:54.215Z,44.93
2017-10-20T08:38:22.882Z,45.27
2017-10-20T08:40:52.009Z,46.64
2017-10-20T08:43:20.531Z,47.08
2017-10-20T08:45:50.159Z,45.66
2017-10-20T08:48:25.973Z,45.93
2017-10-20T08:50:55.284Z,44.42
2017-10-20T08:53:24.524Z,45.88
2017-10-20T08:55:53.351Z,46.02
2017-10-20T08:58:21.884Z,45.01
2017-10-20T09:00:51.467Z,45.98
2017-10-20T09:03:19.909Z,44.01
2017-10-20T09:05:48.384Z,46.11
2017-10-20T09:08:16.874Z,45.77
2017-10-20T09:10:45.897Z,45.19
2017-10-20T09:13:15.614Z,46.09
2017-10-20T09:15:44.085Z,46.34
2017-10-20T09:18:12.569Z,45.83
2017-10-20T09:20:44.849Z,47.35
2017-10-20T09:23:13.472Z,47.18
2017-10-20T09:25:43.785Z,48.26
2017-10-20T09:28:14.838Z,47.51
2017-10-20T09:30:45.575Z,47.16
2017-10-20T09:33:14.419Z,48.02
2017-10-20T09:35:43.611Z,49.64
2017-10-20T09:38:16.955Z,51.50
2017-10-20T09:40:45.791Z,52.29
2017-10-20T09:43:15.605Z,51.85
2017-10-20T09:45:45.492Z,53.37
2017-10-20T09:48:15.366Z,53.05
2017-10-20T09:50:44.564Z,52.72
2017-10-20T09:53:13.046Z,54.05
2017-10-20T09:55:43.258Z,52.59
2017-10-20T09:58:11.880Z,54.29
2017-10-20T10:00:53.160Z,54.84
2017-10-20T10:03:22.204Z,53.07
2017-10-20T10:05:50.820Z,54.11
2017-10-20T10:08:19.881Z,54.94
2017-10-20T10:10:48.657Z,53.50
2017-10-20T10:13:17.138Z,53.78
2017-10-20T10:15:48.710Z,53.56
2017-10-20T10:18:17.613Z,54.07
2017-10-20T10:20:47.242Z,53.38
2017-10-20T10:23:20.526Z,55.80
2017-10-20T10:25:50.487Z,55.63
2017-10-20T10:28:52.659Z,57.32
2017-10-20T10:31:45.977Z,57.79
2017-10-20T10:34:42.766Z,57.22
2017-10-20T10:40:44.742Z,55.95
2017-10-20T10:44:18.087Z,56.92
2017-10-20T10:47:14.306Z,56.70
2017-10-20T10:50:08.490Z,56.13
2017-10-20T10:52:39.294Z,57.52
2017-10-20T10:55:09.165Z,56.08
2017-10-20T10:57:41.005Z,56.91
2017-10-20T11:00:09.752Z,56.15
2017-10-20T11:02:46.481Z,55.77
2017-10-20T11:05:16.209Z,56.30
2017-10-20T11:10:05.831Z,57.30
2017-10-20T11:12:43.180Z,57.22
2017-10-20T11:15:12.892Z,56.88
2017-10-20T11:17:42.794Z,55.73
2017-10-20T11:20:13.022Z,56.22
2017-10-20T11:22:44.153Z,57.11
2017-10-20T11:25:13.657Z,58.63
2017-10-20T11:27:43.973Z,59.37
2017-10-20T11:30:14.853Z,58.74
2017-10-20T11:32:46.118Z,58.26
2017-10-20T11:35:16.207Z,58.21
2017-10-20T11:37:44.754Z,59.05
2017-10-20T11:40:15.757Z,60.65
2017-10-20T11:42:46.510Z,62.42
2017-10-20T11:45:16.676Z,63.18
2017-10-20T11:47:46.129Z,64.68
2017-10-20T11:50:14.725Z,64.71
2017-10-20T11:52:46.486Z,65.04
2017-10-20T11:55:15.242Z,64.38
2017-10-20T11:57:45.785Z,64.17
2017-10-20T12:00:14.476Z,63.14
2017-10-20T12:02:43.988Z,62.33
2017-10-20T12:05:25.553Z,62.47
2017-10-20T12:07:54.670Z,61.74
2017-10-20T12:10:23.194Z,62.29
2017-10-20T12:12:52.092Z,60.35
2017-10-20T12:15:22.853Z,61.57
2017-10-20T12:17:53.240Z,62.51
2017-10-20T12:20:23.181Z,61.21
2017-10-20T12:22:54.663Z,61.16
2017-10-20T12:25:23.762Z,60.60
2017-10-20T12:27:52.975Z,60.36
2017-10-20T12:30:22.349Z,59.59
2017-10-20T12:32:50.833Z,59.03
2017-10-20T12:35:20.643Z,58.72
2017-10-20T12:37:49.869Z,60.57
2017-10-20T12:40:19.393Z,61.61
2017-10-20T12:42:48.513Z,62.33
2017-10-20T12:45:18.573Z,62.01
2017-10-20T12:47:47.782Z,62.55
2017-10-20T12:50:17.116Z,61.94
2017-10-20T12:52:46.937Z,60.89
2017-10-20T12:55:17.706Z,62.75
2017-10-20T12:57:46.310Z,62.25
2017-10-20T13:00:15.651Z,61.41
2017-10-20T13:02:44.980Z,61.44
2017-10-20T13:05:17.089Z,62.44
2017-10-20T13:07:51.231Z,61.34
2017-10-20T13:10:20.873Z,61.07
2017-10-20T13:12:50.092Z,60.82
2017-10-20T13:15:19.370Z,61.14
2017-10-20T13:17:49.454Z,62.03
2017-10-20T13:20:19.890Z,62.66
2017-10-20T13:22:50.449Z,63.79
2017-10-20T13:25:19.709Z,64.64
2017-10-20T13:27:48.149Z,63.90
2017-10-20T13:30:19.626Z,62.55
2017-10-20T13:32:48.174Z,62.82
2017-10-20T13:35:18.027Z,62.68
2017-10-20T13:37:47.186Z,63.03
2017-10-20T13:40:16.789Z,62.00
2017-10-20T13:42:46.899Z,60.71
2017-10-20T13:45:16.617Z,62.12
2017-10-20T13:47:48.300Z,62.68
2017-10-20T13:50:20.843Z,64.74
2017-10-20T13:52:49.601Z,63.82
2017-10-20T13:55:18.061Z,63.35
2017-10-20T13:57:46.826Z,62.91
2017-10-20T14:00:16.025Z,63.09
2017-10-20T14:02:45.139Z,64.31
2017-10-20T14:05:14.589Z,64.30
2017-10-20T14:07:43.786Z,63.86
2017-10-20T14:10:13.504Z,64.01
2017-10-20T14:12:42.673Z,62.69
2017-10-20T14:15:11.157Z,63.54
2017-10-20T14:17:40.357Z,61.87
2017-10-20T14:20:11.334Z,62.66
2017-10-20T14:22:40.645Z,63.32
2017-10-20T14:25:09.157Z,62.99
2017-10-20T14:27:37.757Z,63.67
2017-10-20T14:30:12.937Z,64.87
2017-10-20T14:32:48.605Z,65.96
2017-10-20T14:36:12.040Z,63.60
2017-10-20T14:38:42.018Z,65.65
2017-10-20T14:41:17.734Z,66.19
2017-10-20T14:43:47.255Z,64.83
2017-10-20T14:46:16.069Z,65.21
2017-10-20T14:48:46.231Z,65.75
2017-10-20T14:51:15.318Z,65.50
2017-10-20T14:53:45.091Z,64.96
2017-10-20T14:56:13.900Z,66.99
2017-10-20T14:58:44.709Z,67.56
2017-10-20T15:03:47.062Z,66.34
2017-10-20T15:06:18.865Z,65.04
2017-10-20T15:08:49.655Z,64.43
2017-10-20T15:11:18.494Z,62.87
2017-10-20T15:13:47.762Z,62.17
2017-10-20T15:16:16.870Z,61.91
2017-10-20T15:18:47.389Z,61.27
2017-10-20T15:21:16.357Z,59.99
2017-10-20T15:23:47.353Z,59.08
2017-10-20T15:26:19.257Z,58.90
2017-10-20T15:28:49.953Z,58.84
2017-10-20T15:31:19.104Z,58.52
2017-10-20T15:33:53.723Z,58.25
2017-10-20T15:36:23.045Z,58.51
2017-10-20T15:38:53.260Z,58.83
2017-10-20T15:41:22.952Z,59.15
2017-10-20T15:43:53.382Z,59.70
2017-10-20T15:46:22.163Z,58.85
2017-10-20T15:48:51.238Z,59.16
2017-10-20T15:51:20.291Z,60.35
2017-10-20T15:53:50.692Z,59.79
2017-10-20T16:09:28.983Z,59.87
2017-10-20T16:11:59.747Z,59.58
2017-10-20T16:14:29.904Z,60.20
2017-10-20T16:16:59.360Z,60.38
2017-10-20T16:19:29.138Z,58.63
2017-10-20T16:21:59.193Z,58.52
2017-10-20T16:24:28.181Z,58.51
2017-10-20T16:26:57.090Z,59.14
2017-10-20T16:29:27.068Z,58.42
2017-10-20T16:31:56.904Z,58.45
2017-10-20T16:34:27.015Z,57.08
2017-10-20T16:36:56.536Z,55.79
2017-10-20T16:39:31.226Z,55.49
2017-10-20T16:42:02.857Z,55.28
2017-10-20T16:44:33.122Z,55.92
2017-10-20T16:47:09.792Z,56.03
2017-10-20T16:49:40.402Z,58.29
2017-10-20T16:52:14.235Z,58.41
2017-10-20T16:54:44.238Z,58.59
2017-10-20T16:57:13.466Z,58.36
2017-10-20T16:59:46.082Z,58.08
2017-10-20T17:02:15.745Z,57.67
2017-10-20T17:04:45.138Z,58.90
2017-10-20T17:07:14.281Z,58.55
2017-10-20T17:09:44.443Z,58.85
2017-10-20T17:12:13.967Z,59.27
2017-10-20T17:14:43.330Z,59.99
2017-10-20T17:17:13.066Z,60.14
2017-10-20T17:19:43.379Z,60.03
2017-10-20T17:22:12.334Z,59.70
2017-10-20T17:24:44.902Z,60.30
2017-10-20T17:27:15.563Z,59.71
2017-10-20T17:29:45.639Z,58.60
2017-10-20T17:32:15.661Z,58.88
2017-10-20T17:37:22.867Z,58.73
2017-10-20T17:39:53.397Z,59.08
2017-10-20T17:42:23.176Z,59.88
2017-10-20T17:44:53.194Z,60.03
2017-10-20T17:47:22.402Z,60.95
2017-10-20T17:49:52.414Z,60.15
2017-10-20T17:52:21.404Z,60.78
2017-10-20T17:54:51.530Z,61.40
2017-10-20T17:57:21.625Z,62.95
2017-10-20T17:59:50.530Z,65.00
2017-10-20T18:02:19.643Z,64.77
2017-10-20T18:04:49.948Z,66.37
2017-10-20T18:07:19.015Z,65.94
2017-10-20T18:09:48.494Z,65.94
2017-10-20T18:12:18.932Z,65.48
2017-10-20T18:14:48.853Z,64.75
2017-10-20T18:17:17.621Z,65.83
2017-10-20T18:19:46.866Z,65.90
2017-10-20T18:22:16.207Z,65.76
2017-10-20T18:24:46.055Z,66.66
2017-10-20T18:27:15.682Z,66.03
2017-10-20T18:29:46.448Z,65.96
2017-10-20T18:32:16.155Z,65.54
2017-10-20T18:34:45.734Z,66.63
2017-10-20T18:37:14.636Z,65.46
2017-10-20T18:39:43.478Z,65.19
2017-10-20T18:42:12.311Z,65.75
2017-10-20T18:44:41.243Z,64.97
2017-10-20T18:47:10.805Z,64.46
2017-10-20T18:49:39.790Z,64.26
2017-10-20T18:52:10.096Z,62.76
2017-10-20T18:54:40.520Z,62.45
2017-10-20T18:57:09.775Z,62.36
2017-10-20T18:59:38.589Z,61.45
2017-10-20T19:02:11.969Z,61.14
2017-10-20T19:04:41.022Z,62.43
2017-10-20T19:07:10.998Z,62.64
2017-10-20T19:09:39.801Z,63.16
2017-10-20T19:12:09.361Z,61.90
2017-10-20T19:14:40.256Z,62.21
2017-10-20T19:17:15.488Z,62.81
2017-10-20T19:19:45.914Z,62.36
2017-10-20T19:22:14.758Z,63.19
2017-10-20T19:24:43.626Z,63.19
2017-10-20T19:27:13.382Z,64.62
2017-10-20T19:29:42.582Z,64.66
2017-10-20T19:32:12.714Z,64.31
2017-10-20T19:34:41.579Z,63.81
2017-10-20T19:37:10.945Z,63.61
2017-10-20T19:39:41.126Z,64.52
2017-10-20T19:42:10.055Z,63.64
2017-10-20T19:44:43.350Z,62.70
2017-10-20T19:47:13.334Z,63.78
2017-10-20T19:49:42.950Z,63.15
2017-10-20T19:52:13.074Z,63.08
2017-10-20T19:54:41.870Z,62.51
2017-10-20T19:57:16.271Z,61.23
2017-10-20T19:59:45.314Z,62.39
2017-10-20T20:02:15.266Z,62.86
2017-10-20T20:04:44.214Z,62.71
2017-10-20T20:07:13.340Z,62.36
2017-10-20T20:09:43.054Z,63.01
2017-10-20T20:12:12.910Z,62.97
2017-10-20T20:14:42.606Z,64.34
2017-10-20T20:17:12.228Z,63.60
2017-10-20T20:19:41.837Z,62.89
2017-10-20T20:22:11.349Z,62.96
2017-10-20T20:24:40.464Z,63.89
2017-10-20T20:27:11.618Z,63.80
2017-10-20T20:29:41.428Z,63.40
2017-10-20T20:32:11.333Z,62.30
2017-10-20T20:34:41.100Z,63.46
2017-10-20T20:37:10.790Z,63.72
2017-10-20T20:39:39.628Z,64.19
2017-10-20T20:42:08.896Z,63.08
2017-10-20T20:44:38.570Z,63.89
2017-10-20T20:47:07.362Z,64.23
2017-10-20T20:49:36.174Z,65.21
2017-10-20T20:52:06.006Z,64.35
2017-10-20T20:54:35.815Z,65.69
2017-10-20T20:57:08.042Z,65.35
2017-10-20T20:59:37.144Z,65.49
2017-10-20T21:02:09.276Z,64.49
2017-10-20T21:04:38.830Z,64.25
2017-10-20T21:07:08.496Z,65.41
2017-10-20T21:09:37.409Z,65.22
2017-10-20T21:12:07.542Z,65.95
2017-10-20T21:14:37.310Z,65.94
2017-10-20T21:17:06.107Z,65.66
2017-10-20T21:19:34.971Z,65.24
2017-10-20T21:22:08.051Z,64.93
2017-10-20T21:24:39.023Z,64.33
2017-10-20T21:27:07.837Z,63.85
2017-10-20T21:29:37.906Z,64.41
2017-10-20T21:34:51.167Z,63.26
2017-10-20T21:37:20.034Z,64.17
2017-10-20T21:39:48.875Z,65.36
2017-10-20T21:42:18.618Z,64.75
2017-10-20T21:44:49.381Z,65.02
2017-10-20T21:47:18.196Z,64.12
2017-10-20T21:49:47.929Z,64.40
2017-10-20T21:52:17.555Z,65.00
2017-10-20T21:54:46.379Z,65.04
2017-10-20T21:57:16.042Z,64.80
2017-10-20T21:59:44.851Z,66.42
2017-10-20T22:02:13.626Z,66.13
2017-10-20T22:04:44.725Z,65.37
2017-10-20T22:07:14.669Z,64.94
2017-10-20T22:09:43.418Z,64.79
2017-10-20T22:12:12.242Z,65.27
2017-10-20T22:14:41.860Z,65.73
2017-10-20T22:17:10.920Z,66.01
2017-10-20T22:19:41.241Z,66.83
2017-10-20T22:22:10.777Z,65.71
2017-10-20T22:24:39.558Z,65.67
2017-10-20T22:27:08.361Z,66.14
2017-10-20T22:29:37.140Z,66.37
2017-10-20T22:32:07.029Z,66.45
2017-10-20T22:34:38.182Z,65.79
2017-10-20T22:37:12.170Z,65.11
2017-10-20T22:39:43.164Z,65.32
2017-10-20T22:42:12.863Z,64.94
2017-10-20T22:44:43.927Z,65.12
2017-10-20T22:47:12.942Z,65.61
2017-10-20T22:49:41.707Z,65.62
2017-10-20T22:52:10.513Z,66.05
2017-10-20T22:54:41.281Z,65.75
2017-10-20T22:57:10.206Z,65.36
2017-10-20T22:59:39.250Z,65.61
2017-10-20T23:02:08.859Z,64.96
2017-10-20T23:04:41.220Z,63.98
2017-10-20T23:07:11.629Z,62.95
2017-10-20T23:09:41.414Z,63.74
2017-10-20T23:12:16.055Z,63.93
2017-10-20T23:14:44.915Z,63.92
2017-10-20T23:17:13.763Z,65.41
2017-10-20T23:19:44.150Z,65.02
2017-10-20T23:22:14.798Z,65.91
2017-10-20T23:24:43.602Z,65.80
2017-10-20T23:27:13.139Z,65.83
2017-10-20T23:29:41.957Z,66.82
2017-10-20T23:32:11.647Z,66.45
2017-10-20T23:34:40.635Z,65.74
2017-10-20T23:37:09.746Z,65.32
2017-10-20T23:39:39.290Z,67.34
2017-10-20T23:42:09.946Z,67.25
2017-10-20T23:44:39.754Z,67.66
2017-10-20T23:47:08.587Z,67.68
2017-10-20T23:49:37.836Z,68.85
2017-10-20T23:52:07.378Z,69.87
2017-10-20T23:54:37.465Z,68.63
2017-10-20T23:57:17.793Z,69.19
2017-10-20T23:59:47.684Z,69.44
